sensor_id;sensor_type;location;lat;lon;timestamp;temperature;humidity
55771;DHT22;41687;-33.234;-60.334;2023-10-08T00:01:18;20.70;29.70
55771;DHT22;41687;-33.234;-60.334;2023-10-08T00:03:47;20.60;29.00
55771;DHT22;41687;-33.234;-60.334;2023-10-08T00:06:19;20.60;28.40
55771;DHT22;41687;-33.234;-60.334;2023-10-08T00:08:50;20.70;28.10
55771;DHT22;41687;-33.234;-60.334;2023-10-08T00:11:19;20.60;28.00
55771;DHT22;41687;-33.234;-60.334;2023-10-08T00:13:49;20.50;28.40
55771;DHT22;41687;-33.234;-60.334;2023-10-08T00:16:17;20.40;28.50
55771;DHT22;41687;-33.234;-60.334;2023-10-08T00:18:45;20.30;29.10
55771;DHT22;41687;-33.234;-60.334;2023-10-08T00:21:19;20.20;29.10
55771;DHT22;41687;-33.234;-60.334;2023-10-08T00:23:53;20.10;29.60
55771;DHT22;41687;-33.234;-60.334;2023-10-08T00:26:25;20.00;29.90
55771;DHT22;41687;-33.234;-60.334;2023-10-08T00:29:03;20.10;30.10
55771;DHT22;41687;-33.234;-60.334;2023-10-08T00:31:44;20.00;31.40
55771;DHT22;41687;-33.234;-60.334;2023-10-08T00:34:12;20.00;31.00
55771;DHT22;41687;-33.234;-60.334;2023-10-08T00:36:42;20.00;31.40
55771;DHT22;41687;-33.234;-60.334;2023-10-08T00:39:11;20.00;31.30
55771;DHT22;41687;-33.234;-60.334;2023-10-08T00:41:44;20.00;31.50
55771;DHT22;41687;-33.234;-60.334;2023-10-08T00:44:13;20.00;31.80
55771;DHT22;41687;-33.234;-60.334;2023-10-08T00:46:50;19.90;31.80
55771;DHT22;41687;-33.234;-60.334;2023-10-08T00:49:22;20.00;31.80
55771;DHT22;41687;-33.234;-60.334;2023-10-08T00:52:10;20.00;32.10
55771;DHT22;41687;-33.234;-60.334;2023-10-08T00:54:42;20.10;33.70
55771;DHT22;41687;-33.234;-60.334;2023-10-08T00:57:27;20.10;32.60
55771;DHT22;41687;-33.234;-60.334;2023-10-08T00:59:57;20.10;32.20
55771;DHT22;41687;-33.234;-60.334;2023-10-08T01:02:29;20.10;32.30
55771;DHT22;41687;-33.234;-60.334;2023-10-08T01:05:17;20.10;32.10
55771;DHT22;41687;-33.234;-60.334;2023-10-08T01:08:13;20.10;32.20
55771;DHT22;41687;-33.234;-60.334;2023-10-08T01:10:49;20.10;32.50
55771;DHT22;41687;-33.234;-60.334;2023-10-08T01:13:30;20.10;32.70
55771;DHT22;41687;-33.234;-60.334;2023-10-08T01:16:12;20.10;34.70
55771;DHT22;41687;-33.234;-60.334;2023-10-08T01:18:41;20.00;34.10
55771;DHT22;41687;-33.234;-60.334;2023-10-08T01:21:17;20.00;34.60
55771;DHT22;41687;-33.234;-60.334;2023-10-08T01:24:03;20.00;34.10
55771;DHT22;41687;-33.234;-60.334;2023-10-08T01:26:35;19.90;34.80
55771;DHT22;41687;-33.234;-60.334;2023-10-08T01:29:09;19.90;34.40
55771;DHT22;41687;-33.234;-60.334;2023-10-08T01:31:47;19.90;34.90
55771;DHT22;41687;-33.234;-60.334;2023-10-08T01:34:20;19.90;35.00
55771;DHT22;41687;-33.234;-60.334;2023-10-08T01:36:55;19.80;34.80
55771;DHT22;41687;-33.234;-60.334;2023-10-08T01:39:22;19.80;35.50
55771;DHT22;41687;-33.234;-60.334;2023-10-08T01:41:50;19.60;33.90
55771;DHT22;41687;-33.234;-60.334;2023-10-08T01:44:18;19.00;33.40
55771;DHT22;41687;-33.234;-60.334;2023-10-08T01:46:46;18.90;33.50
55771;DHT22;41687;-33.234;-60.334;2023-10-08T01:49:16;18.70;33.70
55771;DHT22;41687;-33.234;-60.334;2023-10-08T01:51:49;18.60;33.70
55771;DHT22;41687;-33.234;-60.334;2023-10-08T01:54:16;18.60;33.80
55771;DHT22;41687;-33.234;-60.334;2023-10-08T01:56:47;18.50;34.00
55771;DHT22;41687;-33.234;-60.334;2023-10-08T01:59:17;18.50;34.10
55771;DHT22;41687;-33.234;-60.334;2023-10-08T02:01:45;18.60;34.50
55771;DHT22;41687;-33.234;-60.334;2023-10-08T02:04:12;18.50;34.60
55771;DHT22;41687;-33.234;-60.334;2023-10-08T02:06:43;18.50;34.60
55771;DHT22;41687;-33.234;-60.334;2023-10-08T02:09:12;18.50;34.70
55771;DHT22;41687;-33.234;-60.334;2023-10-08T02:11:48;18.50;34.60
55771;DHT22;41687;-33.234;-60.334;2023-10-08T02:14:21;18.50;35.10
55771;DHT22;41687;-33.234;-60.334;2023-10-08T02:16:50;18.60;34.90
55771;DHT22;41687;-33.234;-60.334;2023-10-08T02:19:23;18.60;34.20
55771;DHT22;41687;-33.234;-60.334;2023-10-08T02:21:55;18.70;33.90
55771;DHT22;41687;-33.234;-60.334;2023-10-08T02:24:23;18.70;33.60
55771;DHT22;41687;-33.234;-60.334;2023-10-08T02:26:55;18.70;33.30
55771;DHT22;41687;-33.234;-60.334;2023-10-08T02:29:30;18.70;34.10
55771;DHT22;41687;-33.234;-60.334;2023-10-08T02:31:58;18.80;33.40
55771;DHT22;41687;-33.234;-60.334;2023-10-08T02:34:26;18.80;33.40
55771;DHT22;41687;-33.234;-60.334;2023-10-08T02:36:53;18.80;34.00
55771;DHT22;41687;-33.234;-60.334;2023-10-08T02:39:23;18.70;35.00
55771;DHT22;41687;-33.234;-60.334;2023-10-08T02:41:54;18.70;35.90
55771;DHT22;41687;-33.234;-60.334;2023-10-08T02:44:25;18.70;36.90
55771;DHT22;41687;-33.234;-60.334;2023-10-08T02:46:54;18.70;37.00
55771;DHT22;41687;-33.234;-60.334;2023-10-08T02:49:22;18.60;36.50
55771;DHT22;41687;-33.234;-60.334;2023-10-08T02:51:53;18.70;36.00
55771;DHT22;41687;-33.234;-60.334;2023-10-08T02:54:22;18.60;36.30
55771;DHT22;41687;-33.234;-60.334;2023-10-08T02:56:59;18.60;35.40
55771;DHT22;41687;-33.234;-60.334;2023-10-08T02:59:33;18.60;35.30
55771;DHT22;41687;-33.234;-60.334;2023-10-08T03:02:14;18.50;34.60
55771;DHT22;41687;-33.234;-60.334;2023-10-08T03:04:52;18.40;34.30
55771;DHT22;41687;-33.234;-60.334;2023-10-08T03:07:20;18.40;34.70
55771;DHT22;41687;-33.234;-60.334;2023-10-08T03:10:14;18.30;34.30
55771;DHT22;41687;-33.234;-60.334;2023-10-08T03:12:46;18.40;33.80
55771;DHT22;41687;-33.234;-60.334;2023-10-08T03:15:15;18.40;33.50
55771;DHT22;41687;-33.234;-60.334;2023-10-08T03:17:59;18.40;33.10
55771;DHT22;41687;-33.234;-60.334;2023-10-08T03:20:37;18.40;33.20
55771;DHT22;41687;-33.234;-60.334;2023-10-08T03:23:05;18.40;32.60
55771;DHT22;41687;-33.234;-60.334;2023-10-08T03:25:40;18.30;32.30
55771;DHT22;41687;-33.234;-60.334;2023-10-08T03:28:12;18.30;31.50
55771;DHT22;41687;-33.234;-60.334;2023-10-08T03:30:40;18.20;31.30
55771;DHT22;41687;-33.234;-60.334;2023-10-08T03:33:18;18.20;31.40
55771;DHT22;41687;-33.234;-60.334;2023-10-08T03:35:53;18.30;31.60
55771;DHT22;41687;-33.234;-60.334;2023-10-08T03:38:22;18.30;32.10
55771;DHT22;41687;-33.234;-60.334;2023-10-08T03:41:10;18.30;32.80
55771;DHT22;41687;-33.234;-60.334;2023-10-08T03:43:44;18.20;33.30
55771;DHT22;41687;-33.234;-60.334;2023-10-08T03:46:29;18.10;33.80
55771;DHT22;41687;-33.234;-60.334;2023-10-08T03:48:58;18.10;33.00
55771;DHT22;41687;-33.234;-60.334;2023-10-08T03:51:32;18.10;32.80
55771;DHT22;41687;-33.234;-60.334;2023-10-08T03:54:09;18.00;32.50
55771;DHT22;41687;-33.234;-60.334;2023-10-08T03:56:37;18.00;32.00
55771;DHT22;41687;-33.234;-60.334;2023-10-08T03:59:04;18.00;31.50
55771;DHT22;41687;-33.234;-60.334;2023-10-08T04:01:45;18.00;31.30
55771;DHT22;41687;-33.234;-60.334;2023-10-08T04:04:13;18.10;31.40
55771;DHT22;41687;-33.234;-60.334;2023-10-08T04:06:42;18.00;30.90
55771;DHT22;41687;-33.234;-60.334;2023-10-08T04:09:17;18.00;30.70
55771;DHT22;41687;-33.234;-60.334;2023-10-08T04:11:48;18.00;30.70
55771;DHT22;41687;-33.234;-60.334;2023-10-08T04:14:16;18.00;31.10
55771;DHT22;41687;-33.234;-60.334;2023-10-08T04:16:44;18.00;30.60
55771;DHT22;41687;-33.234;-60.334;2023-10-08T04:19:12;17.90;30.50
55771;DHT22;41687;-33.234;-60.334;2023-10-08T04:21:40;17.90;30.50
55771;DHT22;41687;-33.234;-60.334;2023-10-08T04:24:10;17.80;30.40
55771;DHT22;41687;-33.234;-60.334;2023-10-08T04:26:41;17.80;30.40
55771;DHT22;41687;-33.234;-60.334;2023-10-08T04:29:10;17.80;30.40
55771;DHT22;41687;-33.234;-60.334;2023-10-08T04:31:43;17.70;30.40
55771;DHT22;41687;-33.234;-60.334;2023-10-08T04:34:13;17.70;30.20
55771;DHT22;41687;-33.234;-60.334;2023-10-08T04:36:45;17.80;30.10
55771;DHT22;41687;-33.234;-60.334;2023-10-08T04:39:15;17.90;30.00
55771;DHT22;41687;-33.234;-60.334;2023-10-08T04:41:43;17.80;30.00
55771;DHT22;41687;-33.234;-60.334;2023-10-08T04:44:10;17.70;30.00
55771;DHT22;41687;-33.234;-60.334;2023-10-08T04:46:44;17.60;30.00
55771;DHT22;41687;-33.234;-60.334;2023-10-08T04:49:14;17.50;30.00
55771;DHT22;41687;-33.234;-60.334;2023-10-08T04:52:02;17.40;30.20
55771;DHT22;41687;-33.234;-60.334;2023-10-08T04:54:43;17.30;30.50
55771;DHT22;41687;-33.234;-60.334;2023-10-08T04:57:22;17.20;30.10
55771;DHT22;41687;-33.234;-60.334;2023-10-08T04:59:50;17.10;29.80
55771;DHT22;41687;-33.234;-60.334;2023-10-08T05:02:18;17.10;29.70
55771;DHT22;41687;-33.234;-60.334;2023-10-08T05:05:02;17.10;29.20
55771;DHT22;41687;-33.234;-60.334;2023-10-08T05:07:39;16.90;29.30
55771;DHT22;41687;-33.234;-60.334;2023-10-08T05:10:14;17.00;29.30
55771;DHT22;41687;-33.234;-60.334;2023-10-08T05:12:52;16.90;29.10
55771;DHT22;41687;-33.234;-60.334;2023-10-08T05:15:32;16.90;29.10
55771;DHT22;41687;-33.234;-60.334;2023-10-08T05:18:04;16.80;29.00
55771;DHT22;41687;-33.234;-60.334;2023-10-08T05:20:42;16.80;29.00
55771;DHT22;41687;-33.234;-60.334;2023-10-08T05:23:19;16.60;28.90
55771;DHT22;41687;-33.234;-60.334;2023-10-08T05:25:58;16.70;28.80
55771;DHT22;41687;-33.234;-60.334;2023-10-08T05:28:26;16.60;28.90
55771;DHT22;41687;-33.234;-60.334;2023-10-08T05:30:53;16.60;29.30
55771;DHT22;41687;-33.234;-60.334;2023-10-08T05:33:36;16.60;28.80
55771;DHT22;41687;-33.234;-60.334;2023-10-08T05:36:27;16.70;28.60
55771;DHT22;41687;-33.234;-60.334;2023-10-08T05:39:02;16.60;28.40
55771;DHT22;41687;-33.234;-60.334;2023-10-08T05:41:48;16.60;28.30
55771;DHT22;41687;-33.234;-60.334;2023-10-08T05:44:19;16.50;28.40
55771;DHT22;41687;-33.234;-60.334;2023-10-08T05:46:47;16.60;28.50
55771;DHT22;41687;-33.234;-60.334;2023-10-08T05:49:22;16.70;28.40
55771;DHT22;41687;-33.234;-60.334;2023-10-08T05:51:59;16.70;28.30
55771;DHT22;41687;-33.234;-60.334;2023-10-08T05:54:26;16.70;28.50
55771;DHT22;41687;-33.234;-60.334;2023-10-08T05:56:55;16.50;28.60
55771;DHT22;41687;-33.234;-60.334;2023-10-08T05:59:34;16.50;28.60
55771;DHT22;41687;-33.234;-60.334;2023-10-08T06:05:03;16.50;28.80
55771;DHT22;41687;-33.234;-60.334;2023-10-08T06:07:44;16.40;28.90
55771;DHT22;41687;-33.234;-60.334;2023-10-08T06:10:27;16.40;29.00
55771;DHT22;41687;-33.234;-60.334;2023-10-08T06:13:06;16.30;28.80
55771;DHT22;41687;-33.234;-60.334;2023-10-08T06:15:47;16.40;29.00
55771;DHT22;41687;-33.234;-60.334;2023-10-08T06:18:21;16.40;28.90
55771;DHT22;41687;-33.234;-60.334;2023-10-08T06:21:03;16.60;29.00
55771;DHT22;41687;-33.234;-60.334;2023-10-08T06:23:40;16.50;29.90
55771;DHT22;41687;-33.234;-60.334;2023-10-08T06:26:13;16.50;29.00
55771;DHT22;41687;-33.234;-60.334;2023-10-08T06:28:44;16.60;29.60
55771;DHT22;41687;-33.234;-60.334;2023-10-08T06:31:12;16.60;29.30
55771;DHT22;41687;-33.234;-60.334;2023-10-08T06:33:44;16.60;28.90
55771;DHT22;41687;-33.234;-60.334;2023-10-08T06:36:11;16.60;29.50
55771;DHT22;41687;-33.234;-60.334;2023-10-08T06:38:41;16.60;29.00
55771;DHT22;41687;-33.234;-60.334;2023-10-08T06:41:11;16.60;29.10
55771;DHT22;41687;-33.234;-60.334;2023-10-08T06:43:43;16.60;29.70
55771;DHT22;41687;-33.234;-60.334;2023-10-08T06:46:10;16.50;29.20
55771;DHT22;41687;-33.234;-60.334;2023-10-08T06:48:42;16.60;29.30
55771;DHT22;41687;-33.234;-60.334;2023-10-08T06:51:10;16.60;30.00
55771;DHT22;41687;-33.234;-60.334;2023-10-08T06:53:40;16.50;29.80
55771;DHT22;41687;-33.234;-60.334;2023-10-08T06:56:08;16.60;29.70
55771;DHT22;41687;-33.234;-60.334;2023-10-08T06:58:40;16.50;29.80
55771;DHT22;41687;-33.234;-60.334;2023-10-08T07:01:13;16.50;29.40
55771;DHT22;41687;-33.234;-60.334;2023-10-08T07:03:48;16.50;30.00
55771;DHT22;41687;-33.234;-60.334;2023-10-08T07:06:18;16.50;29.90
55771;DHT22;41687;-33.234;-60.334;2023-10-08T07:09:05;16.40;29.40
55771;DHT22;41687;-33.234;-60.334;2023-10-08T07:11:40;16.40;30.30
55771;DHT22;41687;-33.234;-60.334;2023-10-08T07:14:12;16.50;29.80
55771;DHT22;41687;-33.234;-60.334;2023-10-08T07:16:41;16.40;30.30
55771;DHT22;41687;-33.234;-60.334;2023-10-08T07:19:09;16.40;29.90
55771;DHT22;41687;-33.234;-60.334;2023-10-08T07:21:46;16.40;29.90
55771;DHT22;41687;-33.234;-60.334;2023-10-08T07:24:14;16.40;30.10
55771;DHT22;41687;-33.234;-60.334;2023-10-08T07:26:49;16.40;30.80
55771;DHT22;41687;-33.234;-60.334;2023-10-08T07:29:18;16.30;31.00
55771;DHT22;41687;-33.234;-60.334;2023-10-08T07:31:46;16.20;31.10
55771;DHT22;41687;-33.234;-60.334;2023-10-08T07:34:20;16.10;31.20
55771;DHT22;41687;-33.234;-60.334;2023-10-08T07:36:51;16.10;31.30
55771;DHT22;41687;-33.234;-60.334;2023-10-08T07:39:21;16.00;30.90
55771;DHT22;41687;-33.234;-60.334;2023-10-08T07:42:05;15.90;31.50
55771;DHT22;41687;-33.234;-60.334;2023-10-08T07:44:33;15.90;32.10
55771;DHT22;41687;-33.234;-60.334;2023-10-08T07:47:07;15.80;32.00
55771;DHT22;41687;-33.234;-60.334;2023-10-08T07:49:39;15.70;32.50
55771;DHT22;41687;-33.234;-60.334;2023-10-08T07:52:11;15.70;32.70
55771;DHT22;41687;-33.234;-60.334;2023-10-08T07:54:42;15.60;32.70
55771;DHT22;41687;-33.234;-60.334;2023-10-08T07:57:10;15.50;33.00
55771;DHT22;41687;-33.234;-60.334;2023-10-08T07:59:46;15.60;33.00
55771;DHT22;41687;-33.234;-60.334;2023-10-08T08:02:15;15.60;33.50
55771;DHT22;41687;-33.234;-60.334;2023-10-08T08:04:44;15.60;33.60
55771;DHT22;41687;-33.234;-60.334;2023-10-08T08:07:13;15.50;33.30
55771;DHT22;41687;-33.234;-60.334;2023-10-08T08:09:46;15.50;33.60
55771;DHT22;41687;-33.234;-60.334;2023-10-08T08:12:26;15.50;33.50
55771;DHT22;41687;-33.234;-60.334;2023-10-08T08:14:55;15.50;34.00
55771;DHT22;41687;-33.234;-60.334;2023-10-08T08:17:23;15.60;34.00
55771;DHT22;41687;-33.234;-60.334;2023-10-08T08:19:52;15.60;33.10
55771;DHT22;41687;-33.234;-60.334;2023-10-08T08:22:20;15.60;32.40
55771;DHT22;41687;-33.234;-60.334;2023-10-08T08:24:52;15.60;32.30
55771;DHT22;41687;-33.234;-60.334;2023-10-08T08:27:26;15.60;32.30
55771;DHT22;41687;-33.234;-60.334;2023-10-08T08:29:59;15.50;32.50
55771;DHT22;41687;-33.234;-60.334;2023-10-08T08:32:47;15.50;33.20
55771;DHT22;41687;-33.234;-60.334;2023-10-08T08:35:15;15.50;34.00
55771;DHT22;41687;-33.234;-60.334;2023-10-08T08:37:44;15.50;34.60
55771;DHT22;41687;-33.234;-60.334;2023-10-08T08:40:13;15.50;35.10
55771;DHT22;41687;-33.234;-60.334;2023-10-08T08:42:50;15.50;36.30
55771;DHT22;41687;-33.234;-60.334;2023-10-08T08:45:20;15.40;36.90
55771;DHT22;41687;-33.234;-60.334;2023-10-08T08:47:47;15.40;37.60
55771;DHT22;41687;-33.234;-60.334;2023-10-08T08:50:15;15.40;38.50
55771;DHT22;41687;-33.234;-60.334;2023-10-08T08:52:44;15.30;39.60
55771;DHT22;41687;-33.234;-60.334;2023-10-08T08:55:15;15.30;39.90
55771;DHT22;41687;-33.234;-60.334;2023-10-08T08:57:53;15.30;39.80
55771;DHT22;41687;-33.234;-60.334;2023-10-08T09:00:21;15.20;39.60
55771;DHT22;41687;-33.234;-60.334;2023-10-08T09:02:53;15.20;37.60
55771;DHT22;41687;-33.234;-60.334;2023-10-08T09:05:23;15.20;37.20
55771;DHT22;41687;-33.234;-60.334;2023-10-08T09:07:58;15.20;36.70
55771;DHT22;41687;-33.234;-60.334;2023-10-08T09:10:36;15.10;37.30
55771;DHT22;41687;-33.234;-60.334;2023-10-08T09:13:06;15.10;37.60
55771;DHT22;41687;-33.234;-60.334;2023-10-08T09:15:38;15.10;37.90
55771;DHT22;41687;-33.234;-60.334;2023-10-08T09:18:05;15.00;38.30
55771;DHT22;41687;-33.234;-60.334;2023-10-08T09:20:37;14.90;38.50
55771;DHT22;41687;-33.234;-60.334;2023-10-08T09:23:16;14.90;38.40
55771;DHT22;41687;-33.234;-60.334;2023-10-08T09:25:49;14.90;38.80
55771;DHT22;41687;-33.234;-60.334;2023-10-08T09:28:18;14.80;38.30
55771;DHT22;41687;-33.234;-60.334;2023-10-08T09:30:48;14.80;38.40
55771;DHT22;41687;-33.234;-60.334;2023-10-08T09:33:16;14.70;38.80
55771;DHT22;41687;-33.234;-60.334;2023-10-08T09:35:46;14.70;38.80
55771;DHT22;41687;-33.234;-60.334;2023-10-08T09:38:14;14.70;38.90
55771;DHT22;41687;-33.234;-60.334;2023-10-08T09:40:49;14.70;38.90
55771;DHT22;41687;-33.234;-60.334;2023-10-08T09:43:20;14.60;39.40
55771;DHT22;41687;-33.234;-60.334;2023-10-08T09:45:58;14.60;39.40
55771;DHT22;41687;-33.234;-60.334;2023-10-08T09:48:30;14.60;40.00
55771;DHT22;41687;-33.234;-60.334;2023-10-08T09:51:03;14.60;40.00
55771;DHT22;41687;-33.234;-60.334;2023-10-08T09:53:49;14.60;39.90
55771;DHT22;41687;-33.234;-60.334;2023-10-08T09:56:20;14.60;41.30
55771;DHT22;41687;-33.234;-60.334;2023-10-08T09:58:48;14.60;39.60
55771;DHT22;41687;-33.234;-60.334;2023-10-08T10:01:19;14.70;39.40
55771;DHT22;41687;-33.234;-60.334;2023-10-08T10:03:49;14.70;40.00
55771;DHT22;41687;-33.234;-60.334;2023-10-08T10:06:18;14.80;39.60
55771;DHT22;41687;-33.234;-60.334;2023-10-08T10:08:48;14.70;40.60
55771;DHT22;41687;-33.234;-60.334;2023-10-08T10:11:16;14.80;39.70
55771;DHT22;41687;-33.234;-60.334;2023-10-08T10:13:51;14.80;39.90
55771;DHT22;41687;-33.234;-60.334;2023-10-08T10:16:27;14.80;41.20
55771;DHT22;41687;-33.234;-60.334;2023-10-08T10:18:59;14.90;40.80
55771;DHT22;41687;-33.234;-60.334;2023-10-08T10:21:30;15.00;41.10
55771;DHT22;41687;-33.234;-60.334;2023-10-08T10:24:00;15.00;41.20
55771;DHT22;41687;-33.234;-60.334;2023-10-08T10:26:31;15.00;40.50
55771;DHT22;41687;-33.234;-60.334;2023-10-08T10:31:48;15.50;40.00
55771;DHT22;41687;-33.234;-60.334;2023-10-08T10:34:19;15.80;38.30
55771;DHT22;41687;-33.234;-60.334;2023-10-08T10:36:49;16.10;37.60
55771;DHT22;41687;-33.234;-60.334;2023-10-08T10:39:22;16.70;36.20
55771;DHT22;41687;-33.234;-60.334;2023-10-08T10:42:01;17.20;34.70
55771;DHT22;41687;-33.234;-60.334;2023-10-08T10:44:31;17.60;33.30
55771;DHT22;41687;-33.234;-60.334;2023-10-08T10:47:00;17.60;32.70
55771;DHT22;41687;-33.234;-60.334;2023-10-08T10:49:45;17.40;33.30
55771;DHT22;41687;-33.234;-60.334;2023-10-08T10:52:27;17.20;33.90
55771;DHT22;41687;-33.234;-60.334;2023-10-08T10:55:14;16.90;34.50
55771;DHT22;41687;-33.234;-60.334;2023-10-08T10:57:50;17.00;34.50
55771;DHT22;41687;-33.234;-60.334;2023-10-08T11:00:24;17.20;34.50
55771;DHT22;41687;-33.234;-60.334;2023-10-08T11:03:02;17.30;33.60
55771;DHT22;41687;-33.234;-60.334;2023-10-08T11:05:34;17.60;33.70
55771;DHT22;41687;-33.234;-60.334;2023-10-08T11:08:06;17.70;33.70
55771;DHT22;41687;-33.234;-60.334;2023-10-08T11:10:38;18.00;33.10
55771;DHT22;41687;-33.234;-60.334;2023-10-08T11:13:10;18.20;33.00
55771;DHT22;41687;-33.234;-60.334;2023-10-08T11:15:50;18.50;32.90
55771;DHT22;41687;-33.234;-60.334;2023-10-08T11:18:23;18.90;32.80
55771;DHT22;41687;-33.234;-60.334;2023-10-08T11:20:52;19.50;32.50
55771;DHT22;41687;-33.234;-60.334;2023-10-08T11:23:32;19.40;32.20
55771;DHT22;41687;-33.234;-60.334;2023-10-08T11:26:05;18.90;33.30
55771;DHT22;41687;-33.234;-60.334;2023-10-08T11:28:37;19.10;33.10
55771;DHT22;41687;-33.234;-60.334;2023-10-08T11:31:16;19.70;33.00
55771;DHT22;41687;-33.234;-60.334;2023-10-08T11:33:46;20.00;32.70
55771;DHT22;41687;-33.234;-60.334;2023-10-08T11:36:24;19.40;33.50
55771;DHT22;41687;-33.234;-60.334;2023-10-08T11:39:13;19.60;33.70
55771;DHT22;41687;-33.234;-60.334;2023-10-08T11:42:02;19.80;34.50
55771;DHT22;41687;-33.234;-60.334;2023-10-08T11:44:51;20.10;33.70
55771;DHT22;41687;-33.234;-60.334;2023-10-08T11:47:19;20.00;34.90
55771;DHT22;41687;-33.234;-60.334;2023-10-08T11:49:51;20.20;34.60
55771;DHT22;41687;-33.234;-60.334;2023-10-08T11:52:36;20.60;34.70
55771;DHT22;41687;-33.234;-60.334;2023-10-08T11:55:09;20.50;35.10
55771;DHT22;41687;-33.234;-60.334;2023-10-08T11:57:41;20.50;35.60
55771;DHT22;41687;-33.234;-60.334;2023-10-08T12:00:14;20.90;35.70
55771;DHT22;41687;-33.234;-60.334;2023-10-08T12:02:53;21.10;36.10
55771;DHT22;41687;-33.234;-60.334;2023-10-08T12:05:21;21.40;35.60
55771;DHT22;41687;-33.234;-60.334;2023-10-08T12:07:53;21.60;35.10
55771;DHT22;41687;-33.234;-60.334;2023-10-08T12:10:24;21.70;34.70
55771;DHT22;41687;-33.234;-60.334;2023-10-08T12:12:54;22.10;34.20
55771;DHT22;41687;-33.234;-60.334;2023-10-08T12:15:22;22.10;33.90
55771;DHT22;41687;-33.234;-60.334;2023-10-08T12:18:00;22.40;34.00
55771;DHT22;41687;-33.234;-60.334;2023-10-08T12:20:52;23.10;33.80
55771;DHT22;41687;-33.234;-60.334;2023-10-08T12:23:21;22.80;33.60
55771;DHT22;41687;-33.234;-60.334;2023-10-08T12:25:56;22.60;34.20
55771;DHT22;41687;-33.234;-60.334;2023-10-08T12:28:24;22.50;32.80
55771;DHT22;41687;-33.234;-60.334;2023-10-08T12:30:52;22.90;32.60
55771;DHT22;41687;-33.234;-60.334;2023-10-08T12:33:20;22.40;31.90
55771;DHT22;41687;-33.234;-60.334;2023-10-08T12:35:54;22.30;32.30
55771;DHT22;41687;-33.234;-60.334;2023-10-08T12:38:23;23.00;32.80
55771;DHT22;41687;-33.234;-60.334;2023-10-08T12:40:50;23.10;31.80
55771;DHT22;41687;-33.234;-60.334;2023-10-08T12:43:22;23.60;32.30
55771;DHT22;41687;-33.234;-60.334;2023-10-08T12:45:51;23.20;31.20
55771;DHT22;41687;-33.234;-60.334;2023-10-08T12:48:23;23.50;31.60
55771;DHT22;41687;-33.234;-60.334;2023-10-08T12:50:53;24.20;31.50
55771;DHT22;41687;-33.234;-60.334;2023-10-08T12:53:25;24.20;30.20
55771;DHT22;41687;-33.234;-60.334;2023-10-08T12:56:09;24.00;29.70
55771;DHT22;41687;-33.234;-60.334;2023-10-08T12:58:44;24.50;30.20
55771;DHT22;41687;-33.234;-60.334;2023-10-08T13:01:11;25.20;30.00
55771;DHT22;41687;-33.234;-60.334;2023-10-08T13:03:41;25.20;29.20
55771;DHT22;41687;-33.234;-60.334;2023-10-08T13:06:13;25.30;27.90
55771;DHT22;41687;-33.234;-60.334;2023-10-08T13:08:59;25.50;27.90
55771;DHT22;41687;-33.234;-60.334;2023-10-08T13:11:28;25.60;28.00
55771;DHT22;41687;-33.234;-60.334;2023-10-08T13:14:01;25.60;27.30
55771;DHT22;41687;-33.234;-60.334;2023-10-08T13:16:28;25.40;27.30
55771;DHT22;41687;-33.234;-60.334;2023-10-08T13:18:59;25.10;26.50
55771;DHT22;41687;-33.234;-60.334;2023-10-08T13:21:26;24.90;26.60
55771;DHT22;41687;-33.234;-60.334;2023-10-08T13:23:58;24.50;27.50
55771;DHT22;41687;-33.234;-60.334;2023-10-08T13:26:30;25.00;27.60
55771;DHT22;41687;-33.234;-60.334;2023-10-08T13:28:58;24.80;27.20
55771;DHT22;41687;-33.234;-60.334;2023-10-08T13:31:27;24.90;27.80
55771;DHT22;41687;-33.234;-60.334;2023-10-08T13:33:56;24.60;27.20
55771;DHT22;41687;-33.234;-60.334;2023-10-08T13:36:24;25.00;27.80
55771;DHT22;41687;-33.234;-60.334;2023-10-08T13:38:51;25.30;28.50
55771;DHT22;41687;-33.234;-60.334;2023-10-08T13:41:18;25.50;29.20
55771;DHT22;41687;-33.234;-60.334;2023-10-08T13:43:50;25.60;27.70
55771;DHT22;41687;-33.234;-60.334;2023-10-08T13:46:26;25.00;27.40
55771;DHT22;41687;-33.234;-60.334;2023-10-08T13:48:54;25.20;27.90
55771;DHT22;41687;-33.234;-60.334;2023-10-08T13:51:25;24.70;27.60
55771;DHT22;41687;-33.234;-60.334;2023-10-08T13:53:58;25.50;28.90
55771;DHT22;41687;-33.234;-60.334;2023-10-08T13:56:33;26.10;28.60
55771;DHT22;41687;-33.234;-60.334;2023-10-08T13:59:05;26.20;28.20
55771;DHT22;41687;-33.234;-60.334;2023-10-08T14:01:45;26.60;28.10
55771;DHT22;41687;-33.234;-60.334;2023-10-08T14:04:18;26.60;27.60
55771;DHT22;41687;-33.234;-60.334;2023-10-08T14:06:57;26.40;26.60
55771;DHT22;41687;-33.234;-60.334;2023-10-08T14:09:25;26.10;26.30
55771;DHT22;41687;-33.234;-60.334;2023-10-08T14:12:05;26.10;27.60
55771;DHT22;41687;-33.234;-60.334;2023-10-08T14:14:37;25.90;26.40
55771;DHT22;41687;-33.234;-60.334;2023-10-08T14:17:11;25.60;27.20
55771;DHT22;41687;-33.234;-60.334;2023-10-08T14:19:58;26.00;27.50
55771;DHT22;41687;-33.234;-60.334;2023-10-08T14:22:35;26.50;26.90
55771;DHT22;41687;-33.234;-60.334;2023-10-08T14:25:03;26.80;26.70
55771;DHT22;41687;-33.234;-60.334;2023-10-08T14:27:39;26.80;26.50
55771;DHT22;41687;-33.234;-60.334;2023-10-08T14:30:10;26.20;26.30
55771;DHT22;41687;-33.234;-60.334;2023-10-08T14:32:58;26.40;26.90
55771;DHT22;41687;-33.234;-60.334;2023-10-08T14:35:25;26.60;26.90
55771;DHT22;41687;-33.234;-60.334;2023-10-08T14:38:12;26.90;25.90
55771;DHT22;41687;-33.234;-60.334;2023-10-08T14:40:58;27.10;25.60
55771;DHT22;41687;-33.234;-60.334;2023-10-08T14:43:44;26.80;24.20
55771;DHT22;41687;-33.234;-60.334;2023-10-08T14:46:12;26.50;25.60
55771;DHT22;41687;-33.234;-60.334;2023-10-08T14:48:41;26.70;25.40
55771;DHT22;41687;-33.234;-60.334;2023-10-08T14:51:09;26.70;25.80
55771;DHT22;41687;-33.234;-60.334;2023-10-08T14:53:46;26.90;26.60
55771;DHT22;41687;-33.234;-60.334;2023-10-08T14:56:14;26.70;25.40
55771;DHT22;41687;-33.234;-60.334;2023-10-08T14:58:42;27.00;26.40
55771;DHT22;41687;-33.234;-60.334;2023-10-08T15:01:10;26.50;25.80
55771;DHT22;41687;-33.234;-60.334;2023-10-08T15:03:40;26.00;26.40
55771;DHT22;41687;-33.234;-60.334;2023-10-08T15:06:08;26.10;26.00
55771;DHT22;41687;-33.234;-60.334;2023-10-08T15:08:37;26.30;26.00
55771;DHT22;41687;-33.234;-60.334;2023-10-08T15:11:06;26.50;24.60
55771;DHT22;41687;-33.234;-60.334;2023-10-08T15:13:34;26.40;25.40
55771;DHT22;41687;-33.234;-60.334;2023-10-08T15:16:05;26.30;25.40
55771;DHT22;41687;-33.234;-60.334;2023-10-08T15:18:33;26.30;25.80
55771;DHT22;41687;-33.234;-60.334;2023-10-08T15:21:09;26.50;25.80
55771;DHT22;41687;-33.234;-60.334;2023-10-08T15:23:38;26.50;25.90
55771;DHT22;41687;-33.234;-60.334;2023-10-08T15:26:06;26.80;25.80
55771;DHT22;41687;-33.234;-60.334;2023-10-08T15:28:33;26.90;26.10